sensor_id;sensor_type;location;lat;lon;timestamp;pressure;altitude;pressure_sealevel;temperature;humidity
56070;BME280;41944;52.078;-0.058;2024-01-11T00:01:15;103030.70;;;1.62;100.00
56070;BME280;41944;52.078;-0.058;2024-01-11T00:03:42;103033.80;;;1.63;100.00
56070;BME280;41944;52.078;-0.058;2024-01-11T00:06:09;103038.26;;;1.66;100.00
56070;BME280;41944;52.078;-0.058;2024-01-11T00:08:36;103040.25;;;1.62;100.00
56070;BME280;41944;52.078;-0.058;2024-01-11T00:11:03;103037.32;;;1.52;100.00
56070;BME280;41944;52.078;-0.058;2024-01-11T00:13:30;103037.67;;;1.46;100.00
56070;BME280;41944;52.078;-0.058;2024-01-11T00:15:57;103037.26;;;1.51;100.00
56070;BME280;41944;52.078;-0.058;2024-01-11T00:18:24;103042.26;;;1.74;100.00
56070;BME280;41944;52.078;-0.058;2024-01-11T00:20:51;103046.92;;;1.62;100.00
56070;BME280;41944;52.078;-0.058;2024-01-11T00:23:18;103049.37;;;1.54;100.00
56070;BME280;41944;52.078;-0.058;2024-01-11T00:25:44;103051.89;;;1.59;100.00
56070;BME280;41944;52.078;-0.058;2024-01-11T00:28:11;103055.41;;;1.49;100.00
56070;BME280;41944;52.078;-0.058;2024-01-11T00:30:38;103056.52;;;1.54;100.00
56070;BME280;41944;52.078;-0.058;2024-01-11T00:33:05;103065.43;;;1.39;100.00
56070;BME280;41944;52.078;-0.058;2024-01-11T00:35:33;103068.59;;;1.49;100.00
56070;BME280;41944;52.078;-0.058;2024-01-11T00:38:00;103073.12;;;1.45;100.00
56070;BME280;41944;52.078;-0.058;2024-01-11T00:40:27;103074.09;;;1.53;100.00
56070;BME280;41944;52.078;-0.058;2024-01-11T00:42:54;103080.74;;;1.42;100.00
56070;BME280;41944;52.078;-0.058;2024-01-11T00:45:21;103082.47;;;1.34;100.00
56070;BME280;41944;52.078;-0.058;2024-01-11T00:47:47;103084.06;;;1.28;100.00
56070;BME280;41944;52.078;-0.058;2024-01-11T00:50:14;103085.83;;;1.26;100.00
56070;BME280;41944;52.078;-0.058;2024-01-11T00:52:41;103095.10;;;1.33;100.00
56070;BME280;41944;52.078;-0.058;2024-01-11T00:55:08;103096.40;;;1.26;100.00
56070;BME280;41944;52.078;-0.058;2024-01-11T00:57:35;103102.85;;;1.34;100.00
56070;BME280;41944;52.078;-0.058;2024-01-11T01:00:03;103104.91;;;1.41;100.00
56070;BME280;41944;52.078;-0.058;2024-01-11T01:02:30;103106.10;;;1.41;100.00
56070;BME280;41944;52.078;-0.058;2024-01-11T01:04:57;103106.75;;;1.32;100.00
56070;BME280;41944;52.078;-0.058;2024-01-11T01:07:24;103107.59;;;1.37;100.00
56070;BME280;41944;52.078;-0.058;2024-01-11T01:09:51;103108.78;;;1.22;100.00
56070;BME280;41944;52.078;-0.058;2024-01-11T01:12:18;103110.88;;;1.20;100.00
56070;BME280;41944;52.078;-0.058;2024-01-11T01:14:45;103113.80;;;1.13;100.00
56070;BME280;41944;52.078;-0.058;2024-01-11T01:17:12;103117.88;;;0.96;100.00
56070;BME280;41944;52.078;-0.058;2024-01-11T01:19:39;103118.00;;;1.03;100.00
56070;BME280;41944;52.078;-0.058;2024-01-11T01:22:06;103116.11;;;0.81;100.00
56070;BME280;41944;52.078;-0.058;2024-01-11T01:24:34;103115.45;;;0.63;100.00
56070;BME280;41944;52.078;-0.058;2024-01-11T01:27:01;103120.98;;;0.54;100.00
56070;BME280;41944;52.078;-0.058;2024-01-11T01:29:28;103123.95;;;0.38;100.00
56070;BME280;41944;52.078;-0.058;2024-01-11T01:31:55;103124.18;;;0.70;100.00
56070;BME280;41944;52.078;-0.058;2024-01-11T01:34:22;103122.09;;;0.51;100.00
56070;BME280;41944;52.078;-0.058;2024-01-11T01:36:49;103124.00;;;0.47;100.00
56070;BME280;41944;52.078;-0.058;2024-01-11T01:39:16;103125.77;;;0.56;100.00
56070;BME280;41944;52.078;-0.058;2024-01-11T01:41:43;103127.90;;;0.48;100.00
56070;BME280;41944;52.078;-0.058;2024-01-11T01:44:10;103128.98;;;0.48;100.00
56070;BME280;41944;52.078;-0.058;2024-01-11T01:46:37;103127.04;;;0.48;100.00
56070;BME280;41944;52.078;-0.058;2024-01-11T01:49:06;103128.82;;;0.38;100.00
56070;BME280;41944;52.078;-0.058;2024-01-11T01:51:33;103127.60;;;0.41;100.00
56070;BME280;41944;52.078;-0.058;2024-01-11T01:54:01;103126.37;;;0.52;100.00
56070;BME280;41944;52.078;-0.058;2024-01-11T01:56:29;103130.88;;;0.68;100.00
56070;BME280;41944;52.078;-0.058;2024-01-11T01:58:56;103138.24;;;0.95;100.00
56070;BME280;41944;52.078;-0.058;2024-01-11T02:01:25;103139.42;;;0.77;100.00
56070;BME280;41944;52.078;-0.058;2024-01-11T02:03:53;103142.58;;;0.74;100.00
56070;BME280;41944;52.078;-0.058;2024-01-11T02:06:22;103146.99;;;0.66;100.00
56070;BME280;41944;52.078;-0.058;2024-01-11T02:08:52;103145.52;;;0.81;100.00
56070;BME280;41944;52.078;-0.058;2024-01-11T02:11:20;103154.00;;;0.94;100.00
56070;BME280;41944;52.078;-0.058;2024-01-11T02:13:47;103160.40;;;1.07;100.00
56070;BME280;41944;52.078;-0.058;2024-01-11T02:16:15;103162.92;;;1.10;100.00
56070;BME280;41944;52.078;-0.058;2024-01-11T02:18:42;103162.12;;;1.05;100.00
56070;BME280;41944;52.078;-0.058;2024-01-11T02:21:11;103162.24;;;0.95;100.00
56070;BME280;41944;52.078;-0.058;2024-01-11T02:23:43;103165.14;;;0.93;100.00
56070;BME280;41944;52.078;-0.058;2024-01-11T02:26:10;103168.06;;;0.76;100.00
56070;BME280;41944;52.078;-0.058;2024-01-11T02:28:37;103177.95;;;0.70;100.00
56070;BME280;41944;52.078;-0.058;2024-01-11T02:31:04;103177.11;;;0.57;100.00
56070;BME280;41944;52.078;-0.058;2024-01-11T02:33:31;103176.77;;;0.81;100.00
56070;BME280;41944;52.078;-0.058;2024-01-11T02:35:58;103181.37;;;0.71;100.00
56070;BME280;41944;52.078;-0.058;2024-01-11T02:38:25;103180.24;;;0.66;100.00
56070;BME280;41944;52.078;-0.058;2024-01-11T02:40:51;103181.11;;;0.62;100.00
56070;BME280;41944;52.078;-0.058;2024-01-11T02:43:19;103182.02;;;0.71;100.00
56070;BME280;41944;52.078;-0.058;2024-01-11T02:45:46;103178.04;;;0.78;100.00
56070;BME280;41944;52.078;-0.058;2024-01-11T02:48:13;103179.94;;;0.89;100.00
56070;BME280;41944;52.078;-0.058;2024-01-11T02:50:40;103184.00;;;0.93;100.00
56070;BME280;41944;52.078;-0.058;2024-01-11T02:53:07;103190.46;;;0.70;100.00
56070;BME280;41944;52.078;-0.058;2024-01-11T02:55:34;103192.23;;;0.63;100.00
56070;BME280;41944;52.078;-0.058;2024-01-11T02:58:01;103192.79;;;0.61;100.00
56070;BME280;41944;52.078;-0.058;2024-01-11T03:00:28;103192.95;;;0.52;100.00
56070;BME280;41944;52.078;-0.058;2024-01-11T03:02:55;103192.00;;;0.40;100.00
56070;BME280;41944;52.078;-0.058;2024-01-11T03:05:22;103194.41;;;0.18;100.00
56070;BME280;41944;52.078;-0.058;2024-01-11T03:07:49;103195.99;;;0.10;100.00
56070;BME280;41944;52.078;-0.058;2024-01-11T03:10:16;103200.67;;;-0.03;100.00
56070;BME280;41944;52.078;-0.058;2024-01-11T03:12:43;103202.82;;;-0.15;100.00
56070;BME280;41944;52.078;-0.058;2024-01-11T03:15:10;103202.66;;;-0.26;100.00
56070;BME280;41944;52.078;-0.058;2024-01-11T03:17:37;103201.74;;;-0.36;100.00
56070;BME280;41944;52.078;-0.058;2024-01-11T03:20:04;103205.36;;;-0.43;100.00
56070;BME280;41944;52.078;-0.058;2024-01-11T03:22:32;103204.98;;;-0.43;100.00
56070;BME280;41944;52.078;-0.058;2024-01-11T03:24:59;103205.80;;;-0.53;100.00
56070;BME280;41944;52.078;-0.058;2024-01-11T03:27:26;103209.42;;;-0.56;100.00
56070;BME280;41944;52.078;-0.058;2024-01-11T03:29:53;103214.13;;;-0.62;100.00
56070;BME280;41944;52.078;-0.058;2024-01-11T03:32:20;103213.27;;;-0.68;100.00
56070;BME280;41944;52.078;-0.058;2024-01-11T03:34:47;103216.06;;;-0.72;100.00
56070;BME280;41944;52.078;-0.058;2024-01-11T03:37:14;103217.54;;;-0.71;100.00
56070;BME280;41944;52.078;-0.058;2024-01-11T03:39:41;103216.15;;;-0.76;100.00
56070;BME280;41944;52.078;-0.058;2024-01-11T03:42:08;103218.26;;;-0.64;100.00
56070;BME280;41944;52.078;-0.058;2024-01-11T03:44:36;103217.90;;;-0.59;100.00
56070;BME280;41944;52.078;-0.058;2024-01-11T03:47:03;103215.22;;;-0.67;100.00
56070;BME280;41944;52.078;-0.058;2024-01-11T03:49:30;103216.50;;;-0.72;100.00
56070;BME280;41944;52.078;-0.058;2024-01-11T03:51:57;103218.57;;;-0.71;100.00
56070;BME280;41944;52.078;-0.058;2024-01-11T03:54:24;103215.23;;;-0.70;100.00
56070;BME280;41944;52.078;-0.058;2024-01-11T03:56:51;103215.92;;;-0.74;100.00
56070;BME280;41944;52.078;-0.058;2024-01-11T03:59:18;103215.17;;;-0.77;100.00
56070;BME280;41944;52.078;-0.058;2024-01-11T04:01:45;103220.51;;;-0.65;100.00
56070;BME280;41944;52.078;-0.058;2024-01-11T04:04:12;103219.40;;;-0.69;100.00
56070;BME280;41944;52.078;-0.058;2024-01-11T04:06:39;103222.50;;;-0.65;100.00
56070;BME280;41944;52.078;-0.058;2024-01-11T04:09:06;103224.25;;;-0.73;100.00
56070;BME280;41944;52.078;-0.058;2024-01-11T04:11:34;103224.42;;;-0.60;100.00
56070;BME280;41944;52.078;-0.058;2024-01-11T04:14:01;103222.87;;;-0.60;100.00
56070;BME280;41944;52.078;-0.058;2024-01-11T04:16:28;103220.00;;;-0.56;100.00
56070;BME280;41944;52.078;-0.058;2024-01-11T04:18:55;103224.19;;;-0.39;100.00
56070;BME280;41944;52.078;-0.058;2024-01-11T04:21:22;103225.80;;;-0.46;100.00
56070;BME280;41944;52.078;-0.058;2024-01-11T04:23:50;103224.76;;;-0.59;100.00
56070;BME280;41944;52.078;-0.058;2024-01-11T04:26:17;103230.02;;;-0.46;100.00
56070;BME280;41944;52.078;-0.058;2024-01-11T04:28:44;103232.29;;;-0.55;100.00
56070;BME280;41944;52.078;-0.058;2024-01-11T04:31:12;103233.52;;;-0.56;100.00
56070;BME280;41944;52.078;-0.058;2024-01-11T04:33:40;103234.27;;;-0.66;100.00
56070;BME280;41944;52.078;-0.058;2024-01-11T04:36:07;103231.95;;;-0.72;100.00
56070;BME280;41944;52.078;-0.058;2024-01-11T04:38:34;103235.65;;;-0.58;100.00
56070;BME280;41944;52.078;-0.058;2024-01-11T04:41:02;103238.36;;;-0.66;100.00
56070;BME280;41944;52.078;-0.058;2024-01-11T04:43:28;103242.81;;;-0.80;100.00
56070;BME280;41944;52.078;-0.058;2024-01-11T04:45:55;103246.10;;;-0.87;100.00
56070;BME280;41944;52.078;-0.058;2024-01-11T04:48:23;103245.60;;;-0.90;100.00
56070;BME280;41944;52.078;-0.058;2024-01-11T04:50:50;103245.10;;;-0.91;100.00
56070;BME280;41944;52.078;-0.058;2024-01-11T04:53:17;103246.98;;;-0.86;100.00
56070;BME280;41944;52.078;-0.058;2024-01-11T04:55:44;103248.91;;;-0.89;100.00
56070;BME280;41944;52.078;-0.058;2024-01-11T04:58:10;103251.91;;;-0.82;100.00
56070;BME280;41944;52.078;-0.058;2024-01-11T05:00:37;103254.50;;;-0.91;100.00
56070;BME280;41944;52.078;-0.058;2024-01-11T05:03:05;103259.31;;;-0.88;100.00
56070;BME280;41944;52.078;-0.058;2024-01-11T05:05:31;103260.73;;;-0.84;100.00
56070;BME280;41944;52.078;-0.058;2024-01-11T05:07:59;103265.27;;;-0.78;100.00
56070;BME280;41944;52.078;-0.058;2024-01-11T05:10:26;103266.60;;;-0.68;100.00
56070;BME280;41944;52.078;-0.058;2024-01-11T05:12:53;103267.73;;;-0.71;100.00
56070;BME280;41944;52.078;-0.058;2024-01-11T05:15:20;103266.67;;;-0.73;100.00
56070;BME280;41944;52.078;-0.058;2024-01-11T05:17:47;103265.80;;;-0.67;100.00
56070;BME280;41944;52.078;-0.058;2024-01-11T05:20:15;103267.56;;;-0.71;100.00
56070;BME280;41944;52.078;-0.058;2024-01-11T05:22:42;103271.17;;;-0.75;100.00
56070;BME280;41944;52.078;-0.058;2024-01-11T05:25:09;103274.72;;;-0.73;100.00
56070;BME280;41944;52.078;-0.058;2024-01-11T05:27:36;103281.70;;;-0.72;100.00
56070;BME280;41944;52.078;-0.058;2024-01-11T05:30:04;103285.67;;;-0.71;100.00
56070;BME280;41944;52.078;-0.058;2024-01-11T05:32:31;103291.76;;;-0.66;100.00
56070;BME280;41944;52.078;-0.058;2024-01-11T05:34:58;103291.18;;;-0.50;100.00
56070;BME280;41944;52.078;-0.058;2024-01-11T05:37:25;103294.42;;;-0.38;100.00
56070;BME280;41944;52.078;-0.058;2024-01-11T05:39:52;103296.79;;;-0.45;100.00
56070;BME280;41944;52.078;-0.058;2024-01-11T05:42:19;103302.47;;;-0.44;100.00
56070;BME280;41944;52.078;-0.058;2024-01-11T05:44:46;103308.04;;;-0.50;100.00
56070;BME280;41944;52.078;-0.058;2024-01-11T05:47:13;103309.04;;;-0.43;100.00
56070;BME280;41944;52.078;-0.058;2024-01-11T05:49:40;103311.09;;;-0.43;100.00
56070;BME280;41944;52.078;-0.058;2024-01-11T05:52:07;103310.60;;;-0.34;100.00
56070;BME280;41944;52.078;-0.058;2024-01-11T05:54:35;103312.79;;;-0.29;100.00
56070;BME280;41944;52.078;-0.058;2024-01-11T05:57:02;103317.95;;;-0.40;100.00
56070;BME280;41944;52.078;-0.058;2024-01-11T05:59:29;103319.07;;;-0.28;100.00
56070;BME280;41944;52.078;-0.058;2024-01-11T06:01:56;103322.44;;;-0.15;100.00
56070;BME280;41944;52.078;-0.058;2024-01-11T06:04:23;103325.68;;;-0.25;100.00
56070;BME280;41944;52.078;-0.058;2024-01-11T06:06:50;103328.90;;;-0.13;100.00
56070;BME280;41944;52.078;-0.058;2024-01-11T06:09:17;103335.37;;;-0.21;100.00
56070;BME280;41944;52.078;-0.058;2024-01-11T06:11:44;103337.67;;;-0.06;100.00
56070;BME280;41944;52.078;-0.058;2024-01-11T06:14:11;103336.67;;;-0.11;100.00
56070;BME280;41944;52.078;-0.058;2024-01-11T06:16:39;103338.37;;;-0.16;100.00
56070;BME280;41944;52.078;-0.058;2024-01-11T06:19:07;103339.06;;;-0.04;100.00
56070;BME280;41944;52.078;-0.058;2024-01-11T06:21:34;103337.56;;;-0.10;100.00
56070;BME280;41944;52.078;-0.058;2024-01-11T06:24:00;103341.72;;;-0.13;100.00
56070;BME280;41944;52.078;-0.058;2024-01-11T06:26:27;103339.85;;;-0.12;100.00
56070;BME280;41944;52.078;-0.058;2024-01-11T06:28:54;103343.99;;;-0.04;100.00
56070;BME280;41944;52.078;-0.058;2024-01-11T06:31:22;103346.43;;;0.00;100.00
56070;BME280;41944;52.078;-0.058;2024-01-11T06:33:49;103345.32;;;-0.02;100.00
56070;BME280;41944;52.078;-0.058;2024-01-11T06:36:16;103351.44;;;0.25;100.00
56070;BME280;41944;52.078;-0.058;2024-01-11T06:38:43;103352.06;;;0.23;100.00
56070;BME280;41944;52.078;-0.058;2024-01-11T06:41:10;103356.40;;;0.31;100.00
56070;BME280;41944;52.078;-0.058;2024-01-11T06:43:36;103360.58;;;0.32;100.00
56070;BME280;41944;52.078;-0.058;2024-01-11T06:46:04;103367.52;;;0.40;100.00
56070;BME280;41944;52.078;-0.058;2024-01-11T06:48:32;103372.01;;;0.58;100.00
56070;BME280;41944;52.078;-0.058;2024-01-11T06:50:59;103371.30;;;0.46;100.00
56070;BME280;41944;52.078;-0.058;2024-01-11T06:53:26;103374.88;;;0.44;100.00
56070;BME280;41944;52.078;-0.058;2024-01-11T06:55:53;103376.02;;;0.47;100.00
56070;BME280;41944;52.078;-0.058;2024-01-11T06:58:21;103382.69;;;0.55;100.00
56070;BME280;41944;52.078;-0.058;2024-01-11T07:00:48;103386.20;;;0.69;100.00
56070;BME280;41944;52.078;-0.058;2024-01-11T07:03:15;103380.25;;;0.77;100.00
56070;BME280;41944;52.078;-0.058;2024-01-11T07:05:42;103382.23;;;0.72;100.00
56070;BME280;41944;52.078;-0.058;2024-01-11T07:08:09;103381.61;;;0.63;100.00
56070;BME280;41944;52.078;-0.058;2024-01-11T07:10:36;103383.57;;;0.90;100.00
56070;BME280;41944;52.078;-0.058;2024-01-11T07:13:03;103384.21;;;0.98;100.00
56070;BME280;41944;52.078;-0.058;2024-01-11T07:15:30;103381.88;;;1.23;100.00
56070;BME280;41944;52.078;-0.058;2024-01-11T07:17:56;103381.26;;;1.25;100.00
56070;BME280;41944;52.078;-0.058;2024-01-11T07:20:23;103381.20;;;1.25;100.00
56070;BME280;41944;52.078;-0.058;2024-01-11T07:22:50;103382.78;;;1.26;100.00
56070;BME280;41944;52.078;-0.058;2024-01-11T07:25:17;103385.79;;;1.42;100.00
56070;BME280;41944;52.078;-0.058;2024-01-11T07:27:44;103381.84;;;1.52;100.00
56070;BME280;41944;52.078;-0.058;2024-01-11T07:30:12;103382.50;;;1.48;100.00
56070;BME280;41944;52.078;-0.058;2024-01-11T07:32:39;103388.03;;;1.48;100.00
56070;BME280;41944;52.078;-0.058;2024-01-11T07:35:07;103387.92;;;1.53;100.00
56070;BME280;41944;52.078;-0.058;2024-01-11T07:37:33;103393.45;;;1.48;100.00
56070;BME280;41944;52.078;-0.058;2024-01-11T07:40:00;103400.60;;;1.38;100.00
56070;BME280;41944;52.078;-0.058;2024-01-11T07:42:27;103407.36;;;1.51;100.00
56070;BME280;41944;52.078;-0.058;2024-01-11T07:44:54;103413.85;;;1.35;100.00
56070;BME280;41944;52.078;-0.058;2024-01-11T07:47:21;103416.66;;;1.39;100.00
56070;BME280;41944;52.078;-0.058;2024-01-11T07:49:48;103418.94;;;1.44;100.00
56070;BME280;41944;52.078;-0.058;2024-01-11T07:52:15;103424.41;;;1.35;100.00
56070;BME280;41944;52.078;-0.058;2024-01-11T07:54:42;103426.58;;;1.44;100.00
56070;BME280;41944;52.078;-0.058;2024-01-11T07:57:09;103432.79;;;1.55;100.00
56070;BME280;41944;52.078;-0.058;2024-01-11T07:59:36;103435.30;;;1.71;100.00
56070;BME280;41944;52.078;-0.058;2024-01-11T08:02:03;103439.40;;;1.79;100.00
56070;BME280;41944;52.078;-0.058;2024-01-11T08:04:30;103445.06;;;1.96;100.00
56070;BME280;41944;52.078;-0.058;2024-01-11T08:06:57;103445.78;;;1.98;100.00
56070;BME280;41944;52.078;-0.058;2024-01-11T08:09:24;103446.49;;;2.15;100.00
56070;BME280;41944;52.078;-0.058;2024-01-11T08:11:51;103448.47;;;2.23;100.00
56070;BME280;41944;52.078;-0.058;2024-01-11T08:14:18;103449.47;;;2.38;100.00
56070;BME280;41944;52.078;-0.058;2024-01-11T08:16:45;103453.40;;;2.54;100.00
56070;BME280;41944;52.078;-0.058;2024-01-11T08:19:12;103457.71;;;2.37;100.00
56070;BME280;41944;52.078;-0.058;2024-01-11T08:21:39;103456.85;;;2.58;100.00
56070;BME280;41944;52.078;-0.058;2024-01-11T08:24:07;103463.12;;;2.68;100.00
56070;BME280;41944;52.078;-0.058;2024-01-11T08:26:34;103471.25;;;2.81;100.00
56070;BME280;41944;52.078;-0.058;2024-01-11T08:29:01;103476.67;;;2.86;100.00
56070;BME280;41944;52.078;-0.058;2024-01-11T08:31:28;103483.24;;;2.93;100.00
56070;BME280;41944;52.078;-0.058;2024-01-11T08:33:55;103481.26;;;3.05;100.00
56070;BME280;41944;52.078;-0.058;2024-01-11T08:36:22;103484.71;;;3.01;100.00
56070;BME280;41944;52.078;-0.058;2024-01-11T08:38:48;103483.51;;;3.09;100.00
56070;BME280;41944;52.078;-0.058;2024-01-11T08:41:16;103484.09;;;3.15;100.00
56070;BME280;41944;52.078;-0.058;2024-01-11T08:43:42;103489.83;;;3.11;100.00
56070;BME280;41944;52.078;-0.058;2024-01-11T08:46:09;103490.09;;;3.20;100.00
56070;BME280;41944;52.078;-0.058;2024-01-11T08:48:37;103490.27;;;3.22;100.00
56070;BME280;41944;52.078;-0.058;2024-01-11T08:51:04;103499.06;;;3.38;99.37
56070;BME280;41944;52.078;-0.058;2024-01-11T08:53:31;103499.60;;;3.49;98.15
56070;BME280;41944;52.078;-0.058;2024-01-11T08:55:58;103507.13;;;3.52;97.76
56070;BME280;41944;52.078;-0.058;2024-01-11T08:58:25;103507.97;;;3.47;97.33
56070;BME280;41944;52.078;-0.058;2024-01-11T09:00:52;103507.56;;;3.53;97.41
56070;BME280;41944;52.078;-0.058;2024-01-11T09:03:19;103511.25;;;3.39;97.96
56070;BME280;41944;52.078;-0.058;2024-01-11T09:05:46;103518.23;;;3.55;97.69
56070;BME280;41944;52.078;-0.058;2024-01-11T09:08:13;103518.99;;;3.66;96.27
56070;BME280;41944;52.078;-0.058;2024-01-11T09:10:40;103517.85;;;3.55;97.08
56070;BME280;41944;52.078;-0.058;2024-01-11T09:13:07;103515.38;;;3.75;96.37
56070;BME280;41944;52.078;-0.058;2024-01-11T09:15:34;103515.07;;;3.78;95.56
56070;BME280;41944;52.078;-0.058;2024-01-11T09:18:01;103517.37;;;3.69;96.32
56070;BME280;41944;52.078;-0.058;2024-01-11T09:20:28;103519.83;;;3.71;95.80
56070;BME280;41944;52.078;-0.058;2024-01-11T09:22:55;103525.12;;;3.73;95.41
56070;BME280;41944;52.078;-0.058;2024-01-11T09:25:22;103527.05;;;3.67;96.19
56070;BME280;41944;52.078;-0.058;2024-01-11T09:27:49;103532.66;;;3.81;95.56
56070;BME280;41944;52.078;-0.058;2024-01-11T09:30:16;103530.86;;;3.95;94.97
56070;BME280;41944;52.078;-0.058;2024-01-11T09:32:43;103529.61;;;3.97;94.35
56070;BME280;41944;52.078;-0.058;2024-01-11T09:35:10;103530.69;;;4.11;93.43
56070;BME280;41944;52.078;-0.058;2024-01-11T09:37:37;103530.32;;;3.96;94.60
56070;BME280;41944;52.078;-0.058;2024-01-11T09:40:05;103531.43;;;4.02;94.43
56070;BME280;41944;52.078;-0.058;2024-01-11T09:42:33;103530.89;;;4.05;94.72
56070;BME280;41944;52.078;-0.058;2024-01-11T09:45:01;103535.25;;;4.07;93.98
56070;BME280;41944;52.078;-0.058;2024-01-11T09:47:28;103538.25;;;4.09;94.44
56070;BME280;41944;52.078;-0.058;2024-01-11T09:49:57;103538.94;;;4.21;93.83
56070;BME280;41944;52.078;-0.058;2024-01-11T09:52:26;103539.48;;;4.21;93.68
56070;BME280;41944;52.078;-0.058;2024-01-11T09:54:54;103549.04;;;4.13;94.30
56070;BME280;41944;52.078;-0.058;2024-01-11T09:57:24;103541.08;;;4.09;94.82
56070;BME280;41944;52.078;-0.058;2024-01-11T09:59:56;103541.57;;;4.30;93.25
56070;BME280;41944;52.078;-0.058;2024-01-11T10:02:24;103540.72;;;4.38;92.83
56070;BME280;41944;52.078;-0.058;2024-01-11T10:04:51;103543.84;;;4.54;92.30
56070;BME280;41944;52.078;-0.058;2024-01-11T10:07:19;103544.23;;;4.61;91.99
56070;BME280;41944;52.078;-0.058;2024-01-11T10:09:48;103543.62;;;4.53;92.10
56070;BME280;41944;52.078;-0.058;2024-01-11T10:12:17;103554.20;;;4.62;91.92
56070;BME280;41944;52.078;-0.058;2024-01-11T10:14:44;103564.99;;;4.30;93.08
56070;BME280;41944;52.078;-0.058;2024-01-11T10:17:11;103566.31;;;4.34;93.50
56070;BME280;41944;52.078;-0.058;2024-01-11T10:19:38;103573.38;;;4.32;94.17
56070;BME280;41944;52.078;-0.058;2024-01-11T10:22:06;103575.62;;;4.62;92.40
56070;BME280;41944;52.078;-0.058;2024-01-11T10:24:33;103578.42;;;4.79;91.98
56070;BME280;41944;52.078;-0.058;2024-01-11T10:27:00;103583.37;;;4.75;91.33
56070;BME280;41944;52.078;-0.058;2024-01-11T10:29:29;103583.89;;;4.51;91.87
56070;BME280;41944;52.078;-0.058;2024-01-11T10:31:56;103579.33;;;4.65;91.75
56070;BME280;41944;52.078;-0.058;2024-01-11T10:34:23;103578.40;;;4.65;91.89
56070;BME280;41944;52.078;-0.058;2024-01-11T10:36:50;103588.25;;;4.55;92.92
56070;BME280;41944;52.078;-0.058;2024-01-11T10:39:17;103578.19;;;4.74;91.84
56070;BME280;41944;52.078;-0.058;2024-01-11T10:41:51;103583.43;;;4.75;91.61
56070;BME280;41944;52.078;-0.058;2024-01-11T10:44:19;103584.42;;;4.90;90.38
56070;BME280;41944;52.078;-0.058;2024-01-11T10:46:49;103578.04;;;4.83;90.67
56070;BME280;41944;52.078;-0.058;2024-01-11T10:49:17;103583.82;;;4.97;89.75
56070;BME280;41944;52.078;-0.058;2024-01-11T10:51:53;103585.18;;;5.03;89.44
56070;BME280;41944;52.078;-0.058;2024-01-11T10:54:24;103586.65;;;5.10;88.61
56070;BME280;41944;52.078;-0.058;2024-01-11T10:56:53;103583.81;;;5.13;88.41
56070;BME280;41944;52.078;-0.058;2024-01-11T10:59:21;103582.61;;;5.12;88.59
56070;BME280;41944;52.078;-0.058;2024-01-11T11:01:48;103583.04;;;5.19;88.64
56070;BME280;41944;52.078;-0.058;2024-01-11T11:04:17;103579.50;;;5.20;88.53
56070;BME280;41944;52.078;-0.058;2024-01-11T11:06:45;103583.27;;;5.11;89.64
56070;BME280;41944;52.078;-0.058;2024-01-11T11:09:13;103587.74;;;5.01;89.45
56070;BME280;41944;52.078;-0.058;2024-01-11T11:11:41;103587.85;;;4.88;88.78
56070;BME280;41944;52.078;-0.058;2024-01-11T11:14:09;103590.52;;;5.11;88.90
56070;BME280;41944;52.078;-0.058;2024-01-11T11:16:37;103589.27;;;5.14;89.30
56070;BME280;41944;52.078;-0.058;2024-01-11T11:19:04;103588.05;;;5.26;88.44
56070;BME280;41944;52.078;-0.058;2024-01-11T11:21:30;103594.28;;;5.15;88.23
56070;BME280;41944;52.078;-0.058;2024-01-11T11:23:57;103594.11;;;5.29;88.03
56070;BME280;41944;52.078;-0.058;2024-01-11T11:26:26;103597.72;;;5.14;88.46
56070;BME280;41944;52.078;-0.058;2024-01-11T11:28:53;103592.53;;;5.21;88.59
56070;BME280;41944;52.078;-0.058;2024-01-11T11:31:35;103590.44;;;5.34;88.73
56070;BME280;41944;52.078;-0.058;2024-01-11T11:34:04;103589.78;;;5.41;88.66
56070;BME280;41944;52.078;-0.058;2024-01-11T11:36:33;103590.15;;;5.46;87.80
56070;BME280;41944;52.078;-0.058;2024-01-11T11:39:01;103595.45;;;5.45;87.78
56070;BME280;41944;52.078;-0.058;2024-01-11T11:41:30;103591.22;;;5.25;88.96
56070;BME280;41944;52.078;-0.058;2024-01-11T11:44:01;103592.32;;;5.18;89.33
56070;BME280;41944;52.078;-0.058;2024-01-11T11:46:28;103595.37;;;5.22;89.25
56070;BME280;41944;52.078;-0.058;2024-01-11T11:48:55;103594.49;;;5.29;89.01
56070;BME280;41944;52.078;-0.058;2024-01-11T11:51:23;103596.50;;;5.37;88.60
56070;BME280;41944;52.078;-0.058;2024-01-11T11:53:51;103594.94;;;5.52;87.75
56070;BME280;41944;52.078;-0.058;2024-01-11T11:56:20;103597.40;;;5.51;88.22
56070;BME280;41944;52.078;-0.058;2024-01-11T11:58:48;103598.82;;;5.48;88.49
56070;BME280;41944;52.078;-0.058;2024-01-11T12:01:16;103601.22;;;5.71;87.81
56070;BME280;41944;52.078;-0.058;2024-01-11T12:03:44;103604.37;;;5.78;87.14
56070;BME280;41944;52.078;-0.058;2024-01-11T12:06:12;103600.87;;;5.80;86.18
56070;BME280;41944;52.078;-0.058;2024-01-11T12:08:41;103594.78;;;5.71;86.57
56070;BME280;41944;52.078;-0.058;2024-01-11T12:11:13;103591.36;;;5.38;89.12
56070;BME280;41944;52.078;-0.058;2024-01-11T12:13:40;103593.29;;;5.57;89.06
56070;BME280;41944;52.078;-0.058;2024-01-11T12:16:08;103595.75;;;5.77;88.66
56070;BME280;41944;52.078;-0.058;2024-01-11T12:18:35;103590.34;;;5.77;88.31
56070;BME280;41944;52.078;-0.058;2024-01-11T12:21:02;103587.20;;;5.68;88.11
56070;BME280;41944;52.078;-0.058;2024-01-11T12:23:29;103586.89;;;5.81;88.51
56070;BME280;41944;52.078;-0.058;2024-01-11T12:25:56;103583.86;;;5.53;89.24
56070;BME280;41944;52.078;-0.058;2024-01-11T12:28:23;103586.98;;;5.87;89.34
56070;BME280;41944;52.078;-0.058;2024-01-11T12:30:50;103583.46;;;5.92;88.01
56070;BME280;41944;52.078;-0.058;2024-01-11T12:33:17;103577.30;;;6.02;87.78
56070;BME280;41944;52.078;-0.058;2024-01-11T12:35:45;103576.14;;;5.78;88.80
56070;BME280;41944;52.078;-0.058;2024-01-11T12:38:12;103577.73;;;5.92;87.66
56070;BME280;41944;52.078;-0.058;2024-01-11T12:40:39;103575.37;;;5.96;87.10